OEJN

King Abdulaziz International Airport

Jeddah, Saudi Arabia
TAF OEJN 181100Z 1812/1918 30008G18KT 7000 NSC BECMG 1818/1820 03008KT
Issued Valid From Valid To
Jun-18 @ 11:00 UTC
(2 hours ago)
Jun-18 @ 12:00 UTC
(an hour ago)
Jun-19 @ 18:00 UTC
(-1 days ago)
Jun-18 @ 12:00 to Jun-18 @ 18:00
TAF OEJN 181100Z 1812/1918 30008G18KT 7000 NSC
Wind Visibility Clouds
300° at 8 knots
 Gusting to 18 knots
7,001 meters
  • No significant clouds
Becoming Jun-18 @ 18:00 to Jun-19 @ 18:00
BECMG 1818/1820 03008KT
Wind Visibility Clouds
30° at 8 knots 7,001 meters
  • No significant clouds
TAF OEJN 181100Z 1812/1918 30008G18KT 7000 NSC BECMG 1818/1820 03008KT
Issued Jun-18 @ 11:00 UTC
(2 hours ago)
Valid From Jun-18 @ 12:00 UTC
(an hour ago)
Valid To Jun-19 @ 18:00 UTC
(-1 days ago)
Jun-18 @ 12:00 - Jun-18 @ 18:00
Wind Visibility
300° at 8 knots
 Gusting to 18 knots
7,001 meters
Clouds
  • No significant clouds
Becoming Jun-18 @ 18:00 - Jun-19 @ 18:00
Wind Visibility
30° at 8 knots 7,001 meters
Clouds
  • No significant clouds